sensor_id;sensor_type;location;lat;lon;timestamp;P1;durP1;ratioP1;P2;durP2;ratioP2
73421;SDS011;61637;47.760;-122.022;2023-02-01T00:00:02;5.8;;;3.2;;
73421;SDS011;61637;47.760;-122.022;2023-02-01T00:02:02;5.5;;;2.9;;
73421;SDS011;61637;47.760;-122.022;2023-02-01T00:04:01;7.0;;;2.7;;
73421;SDS011;61637;47.760;-122.022;2023-02-01T00:06:01;7.6;;;2.7;;
73421;SDS011;61637;47.760;-122.022;2023-02-01T00:08:01;6.7;;;4.1;;
73421;SDS011;61637;47.760;-122.022;2023-02-01T00:10:02;8.1;;;5.1;;
73421;SDS011;61637;47.760;-122.022;2023-02-01T00:12:01;7.0;;;5.7;;
73421;SDS011;61637;47.760;-122.022;2023-02-01T00:14:01;7.1;;;5.9;;
73421;SDS011;61637;47.760;-122.022;2023-02-01T00:16:06;10.0;;;7.9;;
73421;SDS011;61637;47.760;-122.022;2023-02-01T00:18:01;11.0;;;9.9;;
73421;SDS011;61637;47.760;-122.022;2023-02-01T00:20:01;11.9;;;10.8;;
73421;SDS011;61637;47.760;-122.022;2023-02-01T00:22:01;11.4;;;10.3;;
73421;SDS011;61637;47.760;-122.022;2023-02-01T00:24:02;9.6;;;7.6;;
73421;SDS011;61637;47.760;-122.022;2023-02-01T00:26:01;8.5;;;7.6;;
73421;SDS011;61637;47.760;-122.022;2023-02-01T00:28:01;8.8;;;7.9;;
73421;SDS011;61637;47.760;-122.022;2023-02-01T00:30:02;8.7;;;7.8;;
73421;SDS011;61637;47.760;-122.022;2023-02-01T00:32:01;10.4;;;9.4;;
73421;SDS011;61637;47.760;-122.022;2023-02-01T00:34:01;12.4;;;11.1;;
73421;SDS011;61637;47.760;-122.022;2023-02-01T00:36:04;13.6;;;12.3;;
73421;SDS011;61637;47.760;-122.022;2023-02-01T00:38:01;13.8;;;12.6;;
73421;SDS011;61637;47.760;-122.022;2023-02-01T00:40:01;13.4;;;12.2;;
73421;SDS011;61637;47.760;-122.022;2023-02-01T00:42:01;11.7;;;10.6;;
73421;SDS011;61637;47.760;-122.022;2023-02-01T00:44:02;13.1;;;11.9;;
73421;SDS011;61637;47.760;-122.022;2023-02-01T00:46:02;11.3;;;10.2;;
73421;SDS011;61637;47.760;-122.022;2023-02-01T00:48:01;11.9;;;10.8;;
73421;SDS011;61637;47.760;-122.022;2023-02-01T00:50:01;12.7;;;11.5;;
73421;SDS011;61637;47.760;-122.022;2023-02-01T00:52:01;13.3;;;12.2;;
73421;SDS011;61637;47.760;-122.022;2023-02-01T00:54:01;12.8;;;11.6;;
73421;SDS011;61637;47.760;-122.022;2023-02-01T00:56:02;15.1;;;13.7;;
73421;SDS011;61637;47.760;-122.022;2023-02-01T00:58:01;14.2;;;12.9;;
73421;SDS011;61637;47.760;-122.022;2023-02-01T01:00:01;unavailable;;;unavailable;;
73421;SDS011;61637;47.760;-122.022;2023-02-01T01:02:01;16.4;;;14.7;;
73421;SDS011;61637;47.760;-122.022;2023-02-01T01:04:01;17.4;;;15.1;;
73421;SDS011;61637;47.760;-122.022;2023-02-01T01:06:04;16.1;;;13.5;;
73421;SDS011;61637;47.760;-122.022;2023-02-01T01:08:01;17.3;;;14.7;;
73421;SDS011;61637;47.760;-122.022;2023-02-01T01:10:01;16.1;;;14.5;;
73421;SDS011;61637;47.760;-122.022;2023-02-01T01:12:01;15.2;;;13.8;;
73421;SDS011;61637;47.760;-122.022;2023-02-01T01:14:01;15.0;;;13.5;;
73421;SDS011;61637;47.760;-122.022;2023-02-01T01:16:02;15.3;;;13.8;;
73421;SDS011;61637;47.760;-122.022;2023-02-01T01:18:01;15.2;;;13.7;;
73421;SDS011;61637;47.760;-122.022;2023-02-01T01:20:02;16.6;;;15.1;;
73421;SDS011;61637;47.760;-122.022;2023-02-01T01:22:01;17.4;;;15.7;;
73421;SDS011;61637;47.760;-122.022;2023-02-01T01:24:01;16.3;;;14.8;;
73421;SDS011;61637;47.760;-122.022;2023-02-01T01:26:05;14.5;;;13.1;;
73421;SDS011;61637;47.760;-122.022;2023-02-01T01:28:01;15.9;;;14.3;;
73421;SDS011;61637;47.760;-122.022;2023-02-01T01:30:01;15.1;;;13.7;;
73421;SDS011;61637;47.760;-122.022;2023-02-01T01:32:02;14.9;;;13.5;;
73421;SDS011;61637;47.760;-122.022;2023-02-01T01:34:01;15.9;;;14.5;;
73421;SDS011;61637;47.760;-122.022;2023-02-01T01:36:01;15.4;;;13.9;;
73421;SDS011;61637;47.760;-122.022;2023-02-01T01:38:02;15.6;;;14.2;;
73421;SDS011;61637;47.760;-122.022;2023-02-01T01:40:01;15.0;;;13.6;;
73421;SDS011;61637;47.760;-122.022;2023-02-01T01:42:01;15.6;;;14.1;;
73421;SDS011;61637;47.760;-122.022;2023-02-01T01:44:04;15.2;;;13.8;;
73421;SDS011;61637;47.760;-122.022;2023-02-01T01:46:01;15.0;;;13.6;;
73421;SDS011;61637;47.760;-122.022;2023-02-01T01:48:05;16.2;;;14.8;;
73421;SDS011;61637;47.760;-122.022;2023-02-01T01:50:03;15.3;;;13.9;;
73421;SDS011;61637;47.760;-122.022;2023-02-01T01:52:03;16.6;;;15.1;;
73421;SDS011;61637;47.760;-122.022;2023-02-01T01:54:05;17.0;;;15.4;;
73421;SDS011;61637;47.760;-122.022;2023-02-01T01:56:02;16.7;;;15.3;;
73421;SDS011;61637;47.760;-122.022;2023-02-01T01:58:05;16.4;;;15.0;;
73421;SDS011;61637;47.760;-122.022;2023-02-01T02:00:05;16.6;;;15.0;;
73421;SDS011;61637;47.760;-122.022;2023-02-01T02:02:01;16.2;;;14.6;;
73421;SDS011;61637;47.760;-122.022;2023-02-01T02:04:01;17.4;;;15.7;;
73421;SDS011;61637;47.760;-122.022;2023-02-01T02:06:03;15.6;;;14.2;;
73421;SDS011;61637;47.760;-122.022;2023-02-01T02:08:01;16.0;;;14.6;;
73421;SDS011;61637;47.760;-122.022;2023-02-01T02:10:03;15.6;;;14.2;;
73421;SDS011;61637;47.760;-122.022;2023-02-01T02:12:01;16.2;;;14.6;;
73421;SDS011;61637;47.760;-122.022;2023-02-01T02:14:02;15.8;;;14.4;;
73421;SDS011;61637;47.760;-122.022;2023-02-01T02:16:14;16.0;;;14.5;;
73421;SDS011;61637;47.760;-122.022;2023-02-01T02:18:08;15.6;;;14.1;;
73421;SDS011;61637;47.760;-122.022;2023-02-01T02:20:20;15.1;;;13.5;;
73421;SDS011;61637;47.760;-122.022;2023-02-01T02:22:15;14.6;;;13.2;;
73421;SDS011;61637;47.760;-122.022;2023-02-01T02:24:10;14.7;;;13.4;;
73421;SDS011;61637;47.760;-122.022;2023-02-01T02:26:14;15.0;;;13.7;;
73421;SDS011;61637;47.760;-122.022;2023-02-01T02:28:08;15.2;;;13.9;;
73421;SDS011;61637;47.760;-122.022;2023-02-01T02:30:19;16.3;;;14.7;;
73421;SDS011;61637;47.760;-122.022;2023-02-01T02:32:17;14.9;;;13.6;;
73421;SDS011;61637;47.760;-122.022;2023-02-01T02:34:11;16.0;;;14.6;;
73421;SDS011;61637;47.760;-122.022;2023-02-01T02:36:07;15.2;;;13.9;;
73421;SDS011;61637;47.760;-122.022;2023-02-01T02:38:09;15.7;;;14.2;;
73421;SDS011;61637;47.760;-122.022;2023-02-01T02:40:07;15.8;;;14.4;;
73421;SDS011;61637;47.760;-122.022;2023-02-01T02:42:07;15.2;;;13.7;;
73421;SDS011;61637;47.760;-122.022;2023-02-01T02:44:10;15.3;;;14.0;;
73421;SDS011;61637;47.760;-122.022;2023-02-01T02:46:04;15.3;;;13.9;;
73421;SDS011;61637;47.760;-122.022;2023-02-01T02:48:09;15.6;;;14.2;;
73421;SDS011;61637;47.760;-122.022;2023-02-01T02:50:09;15.8;;;14.3;;
73421;SDS011;61637;47.760;-122.022;2023-02-01T02:52:06;16.0;;;14.5;;
73421;SDS011;61637;47.760;-122.022;2023-02-01T02:54:05;15.8;;;14.3;;
73421;SDS011;61637;47.760;-122.022;2023-02-01T02:56:02;16.6;;;14.9;;
73421;SDS011;61637;47.760;-122.022;2023-02-01T02:58:03;16.2;;;14.6;;
73421;SDS011;61637;47.760;-122.022;2023-02-01T03:00:04;15.4;;;14.0;;
73421;SDS011;61637;47.760;-122.022;2023-02-01T03:02:01;15.3;;;13.9;;
73421;SDS011;61637;47.760;-122.022;2023-02-01T03:04:01;15.9;;;14.4;;
73421;SDS011;61637;47.760;-122.022;2023-02-01T03:06:02;14.7;;;13.4;;
73421;SDS011;61637;47.760;-122.022;2023-02-01T03:08:04;16.4;;;14.7;;
73421;SDS011;61637;47.760;-122.022;2023-02-01T03:10:03;16.7;;;15.0;;
73421;SDS011;61637;47.760;-122.022;2023-02-01T03:12:06;17.6;;;15.9;;
73421;SDS011;61637;47.760;-122.022;2023-02-01T03:14:02;15.9;;;14.4;;
73421;SDS011;61637;47.760;-122.022;2023-02-01T03:16:04;15.7;;;14.2;;
73421;SDS011;61637;47.760;-122.022;2023-02-01T03:18:04;15.7;;;14.0;;
73421;SDS011;61637;47.760;-122.022;2023-02-01T03:20:04;15.6;;;14.2;;
73421;SDS011;61637;47.760;-122.022;2023-02-01T03:22:04;16.0;;;14.5;;
73421;SDS011;61637;47.760;-122.022;2023-02-01T03:24:04;15.4;;;14.0;;
73421;SDS011;61637;47.760;-122.022;2023-02-01T03:26:02;16.0;;;14.4;;
73421;SDS011;61637;47.760;-122.022;2023-02-01T03:28:04;15.1;;;13.6;;
73421;SDS011;61637;47.760;-122.022;2023-02-01T03:30:06;15.2;;;13.8;;
73421;SDS011;61637;47.760;-122.022;2023-02-01T03:32:01;16.6;;;15.1;;
73421;SDS011;61637;47.760;-122.022;2023-02-01T03:34:01;15.7;;;14.3;;
73421;SDS011;61637;47.760;-122.022;2023-02-01T03:36:05;15.2;;;13.9;;
73421;SDS011;61637;47.760;-122.022;2023-02-01T03:38:06;15.6;;;14.0;;
73421;SDS011;61637;47.760;-122.022;2023-02-01T03:40:05;14.4;;;13.1;;
73421;SDS011;61637;47.760;-122.022;2023-02-01T03:42:04;14.4;;;13.1;;
73421;SDS011;61637;47.760;-122.022;2023-02-01T03:44:08;15.0;;;13.6;;
73421;SDS011;61637;47.760;-122.022;2023-02-01T03:46:05;15.3;;;13.8;;
73421;SDS011;61637;47.760;-122.022;2023-02-01T03:48:03;15.8;;;14.4;;
73421;SDS011;61637;47.760;-122.022;2023-02-01T03:50:04;16.3;;;14.8;;
73421;SDS011;61637;47.760;-122.022;2023-02-01T03:52:02;16.2;;;14.8;;
73421;SDS011;61637;47.760;-122.022;2023-02-01T03:54:03;17.7;;;15.9;;
73421;SDS011;61637;47.760;-122.022;2023-02-01T03:56:02;16.4;;;14.9;;
73421;SDS011;61637;47.760;-122.022;2023-02-01T03:58:06;15.4;;;14.1;;
73421;SDS011;61637;47.760;-122.022;2023-02-01T04:00:06;16.2;;;14.7;;
73421;SDS011;61637;47.760;-122.022;2023-02-01T04:02:01;16.2;;;14.7;;
73421;SDS011;61637;47.760;-122.022;2023-02-01T04:04:01;15.3;;;13.8;;
73421;SDS011;61637;47.760;-122.022;2023-02-01T04:06:01;16.1;;;14.6;;
73421;SDS011;61637;47.760;-122.022;2023-02-01T04:08:01;17.5;;;15.9;;
73421;SDS011;61637;47.760;-122.022;2023-02-01T04:10:02;17.5;;;15.9;;
73421;SDS011;61637;47.760;-122.022;2023-02-01T04:12:01;15.7;;;14.1;;
73421;SDS011;61637;47.760;-122.022;2023-02-01T04:14:01;16.7;;;15.0;;
73421;SDS011;61637;47.760;-122.022;2023-02-01T04:16:01;16.6;;;15.1;;
73421;SDS011;61637;47.760;-122.022;2023-02-01T04:18:02;17.1;;;15.6;;
73421;SDS011;61637;47.760;-122.022;2023-02-01T04:20:01;17.8;;;16.1;;
73421;SDS011;61637;47.760;-122.022;2023-02-01T04:22:01;17.8;;;16.0;;
73421;SDS011;61637;47.760;-122.022;2023-02-01T04:24:01;19.4;;;17.5;;
73421;SDS011;61637;47.760;-122.022;2023-02-01T04:26:02;20.8;;;18.7;;
73421;SDS011;61637;47.760;-122.022;2023-02-01T04:28:01;20.0;;;18.0;;
73421;SDS011;61637;47.760;-122.022;2023-02-01T04:30:01;19.4;;;17.4;;
73421;SDS011;61637;47.760;-122.022;2023-02-01T04:32:02;18.5;;;16.7;;
73421;SDS011;61637;47.760;-122.022;2023-02-01T04:34:01;19.2;;;17.3;;
73421;SDS011;61637;47.760;-122.022;2023-02-01T04:36:01;18.7;;;16.7;;
73421;SDS011;61637;47.760;-122.022;2023-02-01T04:38:01;18.9;;;17.0;;
73421;SDS011;61637;47.760;-122.022;2023-02-01T04:40:01;18.7;;;16.8;;
73421;SDS011;61637;47.760;-122.022;2023-02-01T04:42:01;18.9;;;17.1;;
73421;SDS011;61637;47.760;-122.022;2023-02-01T04:44:01;19.7;;;17.7;;
73421;SDS011;61637;47.760;-122.022;2023-02-01T04:46:01;19.2;;;17.3;;
73421;SDS011;61637;47.760;-122.022;2023-02-01T04:48:01;18.7;;;16.9;;
73421;SDS011;61637;47.760;-122.022;2023-02-01T04:50:01;20.1;;;18.1;;
73421;SDS011;61637;47.760;-122.022;2023-02-01T04:52:01;19.3;;;17.4;;
73421;SDS011;61637;47.760;-122.022;2023-02-01T04:54:01;19.5;;;17.5;;
73421;SDS011;61637;47.760;-122.022;2023-02-01T04:56:01;19.9;;;17.8;;
73421;SDS011;61637;47.760;-122.022;2023-02-01T04:58:01;19.1;;;16.9;;
73421;SDS011;61637;47.760;-122.022;2023-02-01T05:00:01;18.2;;;16.4;;
73421;SDS011;61637;47.760;-122.022;2023-02-01T05:02:01;19.0;;;17.0;;
73421;SDS011;61637;47.760;-122.022;2023-02-01T05:04:01;18.5;;;16.6;;
73421;SDS011;61637;47.760;-122.022;2023-02-01T05:06:01;18.5;;;16.6;;
73421;SDS011;61637;47.760;-122.022;2023-02-01T05:08:01;20.5;;;18.4;;
73421;SDS011;61637;47.760;-122.022;2023-02-01T05:10:01;19.3;;;17.4;;
73421;SDS011;61637;47.760;-122.022;2023-02-01T05:12:01;20.4;;;18.5;;
73421;SDS011;61637;47.760;-122.022;2023-02-01T05:14:01;19.9;;;18.0;;
73421;SDS011;61637;47.760;-122.022;2023-02-01T05:16:01;19.3;;;17.5;;
73421;SDS011;61637;47.760;-122.022;2023-02-01T05:18:01;20.3;;;18.3;;
73421;SDS011;61637;47.760;-122.022;2023-02-01T05:20:01;20.1;;;18.1;;
73421;SDS011;61637;47.760;-122.022;2023-02-01T05:22:01;19.1;;;17.3;;
73421;SDS011;61637;47.760;-122.022;2023-02-01T05:24:01;18.8;;;17.0;;
73421;SDS011;61637;47.760;-122.022;2023-02-01T05:26:02;18.4;;;16.7;;
73421;SDS011;61637;47.760;-122.022;2023-02-01T05:28:01;18.4;;;16.7;;
73421;SDS011;61637;47.760;-122.022;2023-02-01T05:30:02;20.0;;;17.8;;
73421;SDS011;61637;47.760;-122.022;2023-02-01T05:32:02;18.2;;;16.5;;
73421;SDS011;61637;47.760;-122.022;2023-02-01T05:34:01;18.8;;;17.0;;
73421;SDS011;61637;47.760;-122.022;2023-02-01T05:36:01;18.0;;;16.3;;
73421;SDS011;61637;47.760;-122.022;2023-02-01T05:38:01;18.5;;;16.8;;
73421;SDS011;61637;47.760;-122.022;2023-02-01T05:40:01;18.5;;;16.8;;
73421;SDS011;61637;47.760;-122.022;2023-02-01T05:42:01;18.5;;;16.7;;
73421;SDS011;61637;47.760;-122.022;2023-02-01T05:44:02;19.4;;;17.7;;
73421;SDS011;61637;47.760;-122.022;2023-02-01T05:46:01;19.3;;;17.5;;
73421;SDS011;61637;47.760;-122.022;2023-02-01T05:48:01;18.7;;;16.9;;
73421;SDS011;61637;47.760;-122.022;2023-02-01T05:50:01;18.6;;;17.0;;
73421;SDS011;61637;47.760;-122.022;2023-02-01T05:52:02;17.6;;;16.0;;
73421;SDS011;61637;47.760;-122.022;2023-02-01T05:54:01;17.4;;;15.8;;
73421;SDS011;61637;47.760;-122.022;2023-02-01T05:56:01;17.2;;;15.7;;
73421;SDS011;61637;47.760;-122.022;2023-02-01T05:58:01;18.1;;;16.4;;
73421;SDS011;61637;47.760;-122.022;2023-02-01T06:00:01;17.6;;;16.0;;
73421;SDS011;61637;47.760;-122.022;2023-02-01T06:02:01;17.7;;;16.1;;
73421;SDS011;61637;47.760;-122.022;2023-02-01T06:04:01;17.2;;;15.7;;
73421;SDS011;61637;47.760;-122.022;2023-02-01T06:06:01;16.6;;;15.1;;
73421;SDS011;61637;47.760;-122.022;2023-02-01T06:08:01;16.7;;;15.1;;
73421;SDS011;61637;47.760;-122.022;2023-02-01T06:10:01;16.7;;;15.0;;
73421;SDS011;61637;47.760;-122.022;2023-02-01T06:12:01;16.3;;;14.7;;
73421;SDS011;61637;47.760;-122.022;2023-02-01T06:14:01;16.5;;;15.0;;
73421;SDS011;61637;47.760;-122.022;2023-02-01T06:16:01;17.1;;;15.4;;
73421;SDS011;61637;47.760;-122.022;2023-02-01T06:18:01;17.2;;;15.7;;
73421;SDS011;61637;47.760;-122.022;2023-02-01T06:20:01;17.2;;;15.6;;
73421;SDS011;61637;47.760;-122.022;2023-02-01T06:22:01;16.6;;;15.1;;
73421;SDS011;61637;47.760;-122.022;2023-02-01T06:24:01;17.7;;;16.0;;
73421;SDS011;61637;47.760;-122.022;2023-02-01T06:26:02;17.1;;;15.5;;
73421;SDS011;61637;47.760;-122.022;2023-02-01T06:28:01;16.6;;;14.9;;
73421;SDS011;61637;47.760;-122.022;2023-02-01T06:30:01;16.7;;;15.0;;
73421;SDS011;61637;47.760;-122.022;2023-02-01T06:32:02;17.1;;;15.6;;
73421;SDS011;61637;47.760;-122.022;2023-02-01T06:34:01;18.0;;;16.4;;
73421;SDS011;61637;47.760;-122.022;2023-02-01T06:36:04;17.1;;;15.5;;
73421;SDS011;61637;47.760;-122.022;2023-02-01T06:38:01;16.9;;;15.4;;
73421;SDS011;61637;47.760;-122.022;2023-02-01T06:40:01;17.0;;;15.4;;
73421;SDS011;61637;47.760;-122.022;2023-02-01T06:42:01;17.2;;;15.7;;
73421;SDS011;61637;47.760;-122.022;2023-02-01T06:44:02;17.8;;;16.2;;
73421;SDS011;61637;47.760;-122.022;2023-02-01T06:46:03;17.9;;;16.2;;
73421;SDS011;61637;47.760;-122.022;2023-02-01T06:48:01;18.9;;;16.9;;
73421;SDS011;61637;47.760;-122.022;2023-02-01T06:50:01;20.2;;;18.2;;
73421;SDS011;61637;47.760;-122.022;2023-02-01T06:52:01;22.5;;;20.1;;
73421;SDS011;61637;47.760;-122.022;2023-02-01T06:54:01;21.7;;;19.4;;
73421;SDS011;61637;47.760;-122.022;2023-02-01T06:56:03;19.4;;;17.5;;
73421;SDS011;61637;47.760;-122.022;2023-02-01T06:58:01;18.4;;;16.6;;
73421;SDS011;61637;47.760;-122.022;2023-02-01T07:00:01;18.2;;;16.4;;
73421;SDS011;61637;47.760;-122.022;2023-02-01T07:02:01;18.5;;;16.7;;
73421;SDS011;61637;47.760;-122.022;2023-02-01T07:04:01;19.9;;;17.9;;
73421;SDS011;61637;47.760;-122.022;2023-02-01T07:06:01;21.1;;;17.4;;
73421;SDS011;61637;47.760;-122.022;2023-02-01T07:08:01;18.2;;;16.4;;
73421;SDS011;61637;47.760;-122.022;2023-02-01T07:10:01;18.0;;;16.1;;
73421;SDS011;61637;47.760;-122.022;2023-02-01T07:12:01;17.4;;;15.8;;
73421;SDS011;61637;47.760;-122.022;2023-02-01T07:14:01;17.5;;;15.7;;
73421;SDS011;61637;47.760;-122.022;2023-02-01T07:16:03;17.1;;;15.4;;
73421;SDS011;61637;47.760;-122.022;2023-02-01T07:18:01;17.9;;;16.3;;
73421;SDS011;61637;47.760;-122.022;2023-02-01T07:20:01;17.3;;;15.8;;
73421;SDS011;61637;47.760;-122.022;2023-02-01T07:22:01;18.0;;;16.4;;
73421;SDS011;61637;47.760;-122.022;2023-02-01T07:24:01;17.6;;;15.9;;
73421;SDS011;61637;47.760;-122.022;2023-02-01T07:26:03;18.4;;;16.7;;
73421;SDS011;61637;47.760;-122.022;2023-02-01T07:28:01;17.7;;;16.1;;
73421;SDS011;61637;47.760;-122.022;2023-02-01T07:30:01;19.3;;;17.6;;
73421;SDS011;61637;47.760;-122.022;2023-02-01T07:32:01;18.2;;;16.5;;
73421;SDS011;61637;47.760;-122.022;2023-02-01T07:34:01;19.7;;;17.7;;
73421;SDS011;61637;47.760;-122.022;2023-02-01T07:36:03;19.8;;;18.0;;
73421;SDS011;61637;47.760;-122.022;2023-02-01T07:38:01;18.6;;;16.7;;
73421;SDS011;61637;47.760;-122.022;2023-02-01T07:40:01;19.2;;;17.2;;
73421;SDS011;61637;47.760;-122.022;2023-02-01T07:42:01;21.8;;;18.4;;
73421;SDS011;61637;47.760;-122.022;2023-02-01T07:44:01;20.5;;;18.5;;
73421;SDS011;61637;47.760;-122.022;2023-02-01T07:46:03;20.7;;;18.7;;
73421;SDS011;61637;47.760;-122.022;2023-02-01T07:48:01;21.2;;;19.2;;
73421;SDS011;61637;47.760;-122.022;2023-02-01T07:50:01;20.5;;;18.5;;
73421;SDS011;61637;47.760;-122.022;2023-02-01T07:52:01;21.6;;;19.5;;
73421;SDS011;61637;47.760;-122.022;2023-02-01T07:54:01;20.3;;;18.2;;
73421;SDS011;61637;47.760;-122.022;2023-02-01T07:56:02;19.8;;;17.8;;
73421;SDS011;61637;47.760;-122.022;2023-02-01T07:58:01;18.8;;;17.0;;
73421;SDS011;61637;47.760;-122.022;2023-02-01T08:00:01;20.5;;;18.6;;
73421;SDS011;61637;47.760;-122.022;2023-02-01T08:02:01;21.4;;;19.4;;
73421;SDS011;61637;47.760;-122.022;2023-02-01T08:04:02;21.4;;;19.1;;
73421;SDS011;61637;47.760;-122.022;2023-02-01T08:06:02;24.3;;;21.8;;
73421;SDS011;61637;47.760;-122.022;2023-02-01T08:08:01;27.7;;;21.9;;
73421;SDS011;61637;47.760;-122.022;2023-02-01T08:10:01;25.1;;;22.3;;
73421;SDS011;61637;47.760;-122.022;2023-02-01T08:12:01;24.3;;;21.1;;
73421;SDS011;61637;47.760;-122.022;2023-02-01T08:14:01;22.6;;;20.2;;
73421;SDS011;61637;47.760;-122.022;2023-02-01T08:16:02;21.6;;;19.4;;
73421;SDS011;61637;47.760;-122.022;2023-02-01T08:18:01;23.5;;;21.0;;
73421;SDS011;61637;47.760;-122.022;2023-02-01T08:20:01;22.3;;;20.1;;
73421;SDS011;61637;47.760;-122.022;2023-02-01T08:22:01;21.9;;;19.4;;
73421;SDS011;61637;47.760;-122.022;2023-02-01T08:24:01;22.1;;;19.9;;
73421;SDS011;61637;47.760;-122.022;2023-02-01T08:26:06;19.5;;;17.6;;
73421;SDS011;61637;47.760;-122.022;2023-02-01T08:28:01;19.5;;;17.6;;
73421;SDS011;61637;47.760;-122.022;2023-02-01T08:30:01;19.2;;;17.4;;
73421;SDS011;61637;47.760;-122.022;2023-02-01T08:32:01;18.7;;;16.9;;
73421;SDS011;61637;47.760;-122.022;2023-02-01T08:34:02;17.4;;;15.7;;
73421;SDS011;61637;47.760;-122.022;2023-02-01T08:36:01;18.9;;;17.2;;
73421;SDS011;61637;47.760;-122.022;2023-02-01T08:38:01;20.5;;;18.5;;
73421;SDS011;61637;47.760;-122.022;2023-02-01T08:40:01;19.0;;;17.2;;
73421;SDS011;61637;47.760;-122.022;2023-02-01T08:42:01;18.1;;;16.4;;
73421;SDS011;61637;47.760;-122.022;2023-02-01T08:44:01;17.7;;;15.8;;
73421;SDS011;61637;47.760;-122.022;2023-02-01T08:46:01;19.2;;;17.4;;
73421;SDS011;61637;47.760;-122.022;2023-02-01T08:48:01;18.7;;;16.9;;
73421;SDS011;61637;47.760;-122.022;2023-02-01T08:50:01;20.4;;;18.4;;
73421;SDS011;61637;47.760;-122.022;2023-02-01T08:52:01;20.6;;;18.5;;
73421;SDS011;61637;47.760;-122.022;2023-02-01T08:54:01;20.7;;;18.5;;
73421;SDS011;61637;47.760;-122.022;2023-02-01T08:56:02;19.1;;;17.3;;
73421;SDS011;61637;47.760;-122.022;2023-02-01T08:58:01;19.2;;;17.3;;
73421;SDS011;61637;47.760;-122.022;2023-02-01T09:00:02;18.7;;;16.8;;
73421;SDS011;61637;47.760;-122.022;2023-02-01T09:02:01;19.0;;;17.2;;
73421;SDS011;61637;47.760;-122.022;2023-02-01T09:04:01;18.3;;;16.5;;
73421;SDS011;61637;47.760;-122.022;2023-02-01T09:06:01;19.9;;;17.9;;
73421;SDS011;61637;47.760;-122.022;2023-02-01T09:08:01;19.0;;;17.2;;
73421;SDS011;61637;47.760;-122.022;2023-02-01T09:10:01;18.2;;;16.5;;
73421;SDS011;61637;47.760;-122.022;2023-02-01T09:12:02;19.5;;;17.7;;
73421;SDS011;61637;47.760;-122.022;2023-02-01T09:14:01;17.6;;;16.0;;
73421;SDS011;61637;47.760;-122.022;2023-02-01T09:16:01;17.7;;;16.1;;
73421;SDS011;61637;47.760;-122.022;2023-02-01T09:18:01;17.6;;;16.0;;
73421;SDS011;61637;47.760;-122.022;2023-02-01T09:20:02;18.0;;;16.4;;
73421;SDS011;61637;47.760;-122.022;2023-02-01T09:22:01;18.3;;;16.7;;
73421;SDS011;61637;47.760;-122.022;2023-02-01T09:24:02;18.7;;;16.7;;
73421;SDS011;61637;47.760;-122.022;2023-02-01T09:26:02;19.0;;;17.3;;
73421;SDS011;61637;47.760;-122.022;2023-02-01T09:28:01;17.6;;;16.1;;
73421;SDS011;61637;47.760;-122.022;2023-02-01T09:30:01;17.6;;;16.0;;
73421;SDS011;61637;47.760;-122.022;2023-02-01T09:32:02;19.2;;;17.5;;
73421;SDS011;61637;47.760;-122.022;2023-02-01T09:34:01;18.9;;;17.1;;
73421;SDS011;61637;47.760;-122.022;2023-02-01T09:36:03;18.5;;;16.9;;
73421;SDS011;61637;47.760;-122.022;2023-02-01T09:38:01;19.2;;;17.4;;
73421;SDS011;61637;47.760;-122.022;2023-02-01T09:40:01;19.5;;;17.7;;
73421;SDS011;61637;47.760;-122.022;2023-02-01T09:42:10;18.0;;;16.3;;
73421;SDS011;61637;47.760;-122.022;2023-02-01T09:44:08;19.1;;;17.3;;
73421;SDS011;61637;47.760;-122.022;2023-02-01T09:46:08;17.4;;;15.8;;
73421;SDS011;61637;47.760;-122.022;2023-02-01T09:48:05;18.4;;;16.8;;
73421;SDS011;61637;47.760;-122.022;2023-02-01T09:50:04;18.4;;;16.7;;
73421;SDS011;61637;47.760;-122.022;2023-02-01T09:52:05;20.3;;;18.3;;
73421;SDS011;61637;47.760;-122.022;2023-02-01T09:54:05;19.6;;;17.9;;
73421;SDS011;61637;47.760;-122.022;2023-02-01T09:56:06;18.5;;;16.9;;
73421;SDS011;61637;47.760;-122.022;2023-02-01T09:58:05;18.5;;;16.9;;
73421;SDS011;61637;47.760;-122.022;2023-02-01T10:00:06;18.2;;;16.4;;
73421;SDS011;61637;47.760;-122.022;2023-02-01T10:02:02;18.4;;;16.8;;
73421;SDS011;61637;47.760;-122.022;2023-02-01T10:04:04;17.6;;;16.0;;
73421;SDS011;61637;47.760;-122.022;2023-02-01T10:08:07;18.6;;;16.9;;
73421;SDS011;61637;47.760;-122.022;2023-02-01T10:10:06;19.0;;;17.3;;
73421;SDS011;61637;47.760;-122.022;2023-02-01T10:14:07;17.1;;;15.5;;
73421;SDS011;61637;47.760;-122.022;2023-02-01T10:16:13;17.6;;;16.1;;
73421;SDS011;61637;47.760;-122.022;2023-02-01T10:18:11;17.7;;;16.1;;
73421;SDS011;61637;47.760;-122.022;2023-02-01T10:20:07;17.5;;;15.8;;
73421;SDS011;61637;47.760;-122.022;2023-02-01T10:22:03;15.2;;;13.6;;
73421;SDS011;61637;47.760;-122.022;2023-02-01T10:24:10;17.2;;;15.6;;
73421;SDS011;61637;47.760;-122.022;2023-02-01T10:26:08;17.7;;;16.0;;
73421;SDS011;61637;47.760;-122.022;2023-02-01T10:28:01;17.1;;;15.5;;
73421;SDS011;61637;47.760;-122.022;2023-02-01T10:30:13;17.0;;;15.4;;
73421;SDS011;61637;47.760;-122.022;2023-02-01T10:32:02;16.7;;;15.2;;
73421;SDS011;61637;47.760;-122.022;2023-02-01T10:34:07;18.0;;;16.2;;
73421;SDS011;61637;47.760;-122.022;2023-02-01T10:36:05;18.1;;;16.5;;
73421;SDS011;61637;47.760;-122.022;2023-02-01T10:38:01;17.5;;;15.8;;
73421;SDS011;61637;47.760;-122.022;2023-02-01T10:40:09;17.4;;;15.8;;
73421;SDS011;61637;47.760;-122.022;2023-02-01T10:42:01;17.0;;;15.4;;
73421;SDS011;61637;47.760;-122.022;2023-02-01T10:44:03;16.3;;;14.8;;
73421;SDS011;61637;47.760;-122.022;2023-02-01T10:46:01;17.0;;;15.4;;
73421;SDS011;61637;47.760;-122.022;2023-02-01T10:48:03;17.7;;;16.1;;
73421;SDS011;61637;47.760;-122.022;2023-02-01T10:50:12;16.8;;;15.2;;
73421;SDS011;61637;47.760;-122.022;2023-02-01T10:52:10;18.3;;;16.7;;
73421;SDS011;61637;47.760;-122.022;2023-02-01T10:54:03;17.4;;;15.9;;
73421;SDS011;61637;47.760;-122.022;2023-02-01T10:56:06;17.3;;;15.8;;
73421;SDS011;61637;47.760;-122.022;2023-02-01T10:58:03;16.5;;;15.0;;
73421;SDS011;61637;47.760;-122.022;2023-02-01T11:00:06;15.8;;;14.4;;
73421;SDS011;61637;47.760;-122.022;2023-02-01T11:02:05;17.7;;;15.8;;
73421;SDS011;61637;47.760;-122.022;2023-02-01T11:04:03;17.2;;;15.7;;
73421;SDS011;61637;47.760;-122.022;2023-02-01T11:06:03;17.2;;;15.7;;
73421;SDS011;61637;47.760;-122.022;2023-02-01T11:08:02;17.6;;;16.1;;
73421;SDS011;61637;47.760;-122.022;2023-02-01T11:10:01;19.5;;;17.8;;
73421;SDS011;61637;47.760;-122.022;2023-02-01T11:12:01;19.3;;;17.5;;
73421;SDS011;61637;47.760;-122.022;2023-02-01T11:14:13;18.2;;;16.4;;
73421;SDS011;61637;47.760;-122.022;2023-02-01T11:16:03;19.4;;;17.5;;
73421;SDS011;61637;47.760;-122.022;2023-02-01T11:18:15;18.9;;;17.1;;
73421;SDS011;61637;47.760;-122.022;2023-02-01T11:20:04;19.7;;;17.9;;
73421;SDS011;61637;47.760;-122.022;2023-02-01T11:22:01;19.8;;;18.0;;
73421;SDS011;61637;47.760;-122.022;2023-02-01T11:24:02;19.9;;;18.0;;
73421;SDS011;61637;47.760;-122.022;2023-02-01T11:26:09;19.3;;;17.5;;
73421;SDS011;61637;47.760;-122.022;2023-02-01T11:28:02;19.1;;;17.4;;
73421;SDS011;61637;47.760;-122.022;2023-02-01T11:30:02;19.2;;;17.4;;
73421;SDS011;61637;47.760;-122.022;2023-02-01T11:32:02;17.6;;;16.0;;
73421;SDS011;61637;47.760;-122.022;2023-02-01T11:34:07;19.2;;;17.5;;